createdAt,value
2022-08-08T00:02:30.600Z,75.71
2022-08-08T00:04:53.181Z,75.80
2022-08-08T00:07:52.327Z,75.75
2022-08-08T00:10:34.319Z,76.08
2022-08-08T00:14:17.392Z,76.09
2022-08-08T00:16:17.397Z,76.29
2022-08-08T00:18:56.188Z,76.82
2022-08-08T00:21:39.748Z,77.04
2022-08-08T00:24:29.881Z,77.09
2022-08-08T00:27:05.970Z,77.19
2022-08-08T00:29:50.852Z,77.53
2022-08-08T00:32:35.615Z,77.53
2022-08-08T00:35:18.517Z,77.64
2022-08-08T00:38:01.603Z,77.91
2022-08-08T00:41:12.007Z,77.80
2022-08-08T00:43:40.140Z,77.97
2022-08-08T00:46:19.326Z,77.98
2022-08-08T00:49:22.598Z,78.17
2022-08-08T00:52:20.056Z,78.30
2022-08-08T00:55:18.975Z,78.66
2022-08-08T00:58:30.694Z,78.96
2022-08-08T01:01:37.706Z,79.18
2022-08-08T01:04:50.656Z,79.30
2022-08-08T01:07:54.105Z,79.22
2022-08-08T01:10:44.783Z,79.30
2022-08-08T01:13:43.570Z,79.47
2022-08-08T01:16:27.761Z,79.64
2022-08-08T01:19:42.326Z,79.73
2022-08-08T01:22:34.868Z,79.92
2022-08-08T01:25:26.289Z,80.25
2022-08-08T01:28:02.048Z,80.61
2022-08-08T01:31:05.919Z,80.46
2022-08-08T01:34:05.750Z,80.41
2022-08-08T01:36:55.146Z,80.45
2022-08-08T01:39:34.840Z,80.44
2022-08-08T01:42:35.533Z,80.99
2022-08-08T01:45:27.490Z,80.94
2022-08-08T01:48:16.812Z,80.84
2022-08-08T01:52:03.041Z,80.91
2022-08-08T01:55:46.192Z,80.72
2022-08-08T01:58:04.396Z,80.91
2022-08-08T02:00:25.071Z,80.75
2022-08-08T02:03:49.247Z,80.67
2022-08-08T02:06:31.882Z,81.10
2022-08-08T02:09:19.333Z,81.09
2022-08-08T02:12:13.860Z,81.11
2022-08-08T02:14:58.779Z,81.26
2022-08-08T02:17:42.315Z,81.29
2022-08-08T02:21:01.312Z,81.51
2022-08-08T02:23:32.046Z,81.47
2022-08-08T02:26:15.750Z,81.58
2022-08-08T02:29:05.477Z,82.08
2022-08-08T02:32:00.864Z,82.26
2022-08-08T02:35:07.613Z,82.23
2022-08-08T02:38:02.982Z,82.40
2022-08-08T02:41:17.631Z,82.62
2022-08-08T02:44:38.393Z,82.71
2022-08-08T02:47:47.128Z,82.90
2022-08-08T02:50:55.579Z,82.75
2022-08-08T02:53:54.465Z,82.90
2022-08-08T02:57:17.458Z,82.92
2022-08-08T03:00:15.831Z,83.13
2022-08-08T03:05:00.611Z,83.19
2022-08-08T03:06:34.749Z,83.36
2022-08-08T03:09:41.293Z,83.23
2022-08-08T03:13:01.955Z,83.35
2022-08-08T03:16:01.025Z,83.83
2022-08-08T03:18:52.255Z,83.86
2022-08-08T03:21:19.746Z,84.00
2022-08-08T03:23:59.280Z,83.91
2022-08-08T03:26:32.695Z,84.21
2022-08-08T03:29:20.916Z,84.11
2022-08-08T03:32:22.976Z,84.08
2022-08-08T03:34:57.684Z,84.06
2022-08-08T03:37:59.529Z,84.17
2022-08-08T03:40:29.089Z,84.19
2022-08-08T03:42:58.680Z,84.61
2022-08-08T03:46:05.980Z,84.82
2022-08-08T03:49:09.755Z,84.49
2022-08-08T03:51:40.290Z,84.42
2022-08-08T03:54:06.962Z,84.61
2022-08-08T03:56:36.146Z,84.66
2022-08-08T03:59:04.309Z,85.08
2022-08-08T04:02:02.432Z,85.00
2022-08-08T04:04:30.797Z,85.02
2022-08-08T04:07:01.575Z,85.00
2022-08-08T04:10:00.012Z,85.16
2022-08-08T04:12:17.399Z,85.12
2022-08-08T04:14:47.277Z,85.34
2022-08-08T04:17:46.097Z,85.04
2022-08-08T04:20:08.259Z,85.22
2022-08-08T04:22:36.390Z,85.05
2022-08-08T04:25:04.394Z,85.24
2022-08-08T04:28:03.529Z,85.39
2022-08-08T04:30:20.149Z,85.29
2022-08-08T04:32:50.538Z,85.05
2022-08-08T04:35:22.543Z,85.03
2022-08-08T04:37:51.829Z,85.01
2022-08-08T04:40:19.839Z,84.78
2022-08-08T04:42:57.166Z,84.87
2022-08-08T04:45:28.229Z,84.65
2022-08-08T04:47:58.721Z,84.59
2022-08-08T04:50:34.210Z,84.55
2022-08-08T04:53:13.723Z,84.42
2022-08-08T04:55:56.229Z,84.32
2022-08-08T04:58:24.338Z,84.35
2022-08-08T05:00:52.215Z,84.54
2022-08-08T05:04:07.629Z,84.37
2022-08-08T05:06:12.765Z,84.37
2022-08-08T05:08:42.777Z,84.21
2022-08-08T05:11:22.560Z,83.97
2022-08-08T05:13:58.037Z,83.88
2022-08-08T05:16:50.860Z,84.05
2022-08-08T05:20:09.271Z,84.06
2022-08-08T05:22:06.827Z,84.00
2022-08-08T05:24:34.976Z,83.48
2022-08-08T05:27:05.495Z,83.57
2022-08-08T05:29:35.750Z,83.22
2022-08-08T05:32:06.470Z,83.21
2022-08-08T05:34:37.686Z,82.72
2022-08-08T05:37:07.505Z,82.46
2022-08-08T05:39:54.834Z,82.08
2022-08-08T05:42:41.930Z,81.81
2022-08-08T05:45:30.598Z,81.50
2022-08-08T05:48:08.587Z,81.41
2022-08-08T05:50:38.948Z,80.98
2022-08-08T05:53:53.898Z,80.30
2022-08-08T05:56:07.918Z,79.15
2022-08-08T05:58:57.149Z,78.15
2022-08-08T06:01:55.787Z,76.96
2022-08-08T06:04:23.305Z,76.84
2022-08-08T06:06:56.762Z,76.50
2022-08-08T06:09:41.594Z,75.45
2022-08-08T06:12:29.577Z,74.97
2022-08-08T06:15:03.147Z,73.53
2022-08-08T06:18:18.569Z,74.06
2022-08-08T06:20:22.983Z,72.15
2022-08-08T06:22:53.908Z,71.32
2022-08-08T06:26:34.921Z,71.62
2022-08-08T06:28:20.380Z,70.45
2022-08-08T06:31:00.063Z,68.56
2022-08-08T06:34:25.545Z,68.91
2022-08-08T06:36:53.956Z,68.57
2022-08-08T06:39:22.512Z,66.64
2022-08-08T06:41:57.089Z,65.88
2022-08-08T06:44:25.959Z,66.38
2022-08-08T06:46:57.748Z,65.76
2022-08-08T06:49:56.489Z,65.03
2022-08-08T06:52:16.060Z,65.16
2022-08-08T06:54:44.991Z,64.18
2022-08-08T06:57:16.754Z,65.21
2022-08-08T07:00:10.653Z,64.22
2022-08-08T07:02:36.564Z,64.79
2022-08-08T07:05:20.571Z,63.61
2022-08-08T07:08:13.526Z,62.47
2022-08-08T07:10:51.663Z,62.40
2022-08-08T07:13:25.319Z,62.32
2022-08-08T07:16:06.151Z,62.39
2022-08-08T07:18:57.408Z,62.62
2022-08-08T07:21:34.622Z,62.58
2022-08-08T07:24:18.873Z,61.96
2022-08-08T07:26:54.632Z,61.39
2022-08-08T07:30:02.137Z,60.53
2022-08-08T07:32:17.231Z,60.63
2022-08-08T07:35:00.444Z,59.63
2022-08-08T07:37:49.442Z,59.86
2022-08-08T07:40:20.978Z,59.65
2022-08-08T07:42:57.713Z,59.24
2022-08-08T07:45:34.543Z,59.57
2022-08-08T07:48:05.222Z,58.94
2022-08-08T07:50:38.300Z,58.72
2022-08-08T07:53:52.053Z,58.44
2022-08-08T07:56:09.469Z,58.08
2022-08-08T07:58:42.149Z,58.22
2022-08-08T08:01:15.859Z,58.83
2022-08-08T08:04:02.907Z,57.56
2022-08-08T08:06:34.439Z,56.36
2022-08-08T08:09:24.914Z,55.87
2022-08-08T08:11:56.782Z,55.33
2022-08-08T08:14:50.360Z,55.55
2022-08-08T08:17:28.813Z,54.62
2022-08-08T08:20:10.282Z,55.11
2022-08-08T08:22:37.875Z,55.16
2022-08-08T08:25:08.908Z,53.62
2022-08-08T08:27:37.223Z,53.99
2022-08-08T08:30:05.935Z,53.82
2022-08-08T08:32:41.031Z,52.09
2022-08-08T08:35:17.595Z,52.68
2022-08-08T08:38:14.645Z,53.53
2022-08-08T08:40:38.137Z,53.80
2022-08-08T08:43:11.833Z,55.80
2022-08-08T08:45:44.391Z,56.91
2022-08-08T08:48:16.399Z,57.42
2022-08-08T08:50:52.162Z,58.85
2022-08-08T08:53:55.252Z,58.78
2022-08-08T08:56:08.575Z,57.94
2022-08-08T08:58:50.292Z,58.14
2022-08-08T09:01:21.166Z,57.78
2022-08-08T09:03:51.815Z,56.29
2022-08-08T09:06:34.429Z,54.87
2022-08-08T09:09:26.189Z,53.65
2022-08-08T09:12:07.477Z,53.49
2022-08-08T09:14:42.349Z,51.27
2022-08-08T09:17:17.491Z,52.00
2022-08-08T09:22:01.643Z,52.40
2022-08-08T09:22:39.596Z,50.21
2022-08-08T09:25:09.918Z,51.07
2022-08-08T09:27:55.897Z,54.06
2022-08-08T09:30:27.861Z,54.84
2022-08-08T09:33:53.914Z,54.72
2022-08-08T09:35:50.008Z,54.78
2022-08-08T09:38:52.427Z,55.38
2022-08-08T09:41:33.835Z,56.37
2022-08-08T09:44:34.081Z,58.12
2022-08-08T09:47:25.803Z,58.06
2022-08-08T09:50:03.395Z,58.63
2022-08-08T09:52:55.427Z,59.16
2022-08-08T09:56:03.199Z,58.84
2022-08-08T09:58:25.965Z,58.13
2022-08-08T10:01:15.217Z,58.38
2022-08-08T10:03:58.153Z,57.25
2022-08-08T10:06:32.310Z,57.06
2022-08-08T10:09:00.778Z,53.47
2022-08-08T10:12:26.352Z,51.02
2022-08-08T10:14:28.139Z,50.80
2022-08-08T10:17:56.405Z,46.72
2022-08-08T10:20:03.794Z,45.47
2022-08-08T10:22:54.972Z,47.51
2022-08-08T10:25:24.506Z,48.42
2022-08-08T10:27:57.757Z,48.47
2022-08-08T10:30:59.737Z,45.57
2022-08-08T10:33:14.776Z,46.21
2022-08-08T10:36:07.225Z,44.08
2022-08-08T10:38:40.574Z,44.70
2022-08-08T10:41:17.231Z,46.26
2022-08-08T10:43:51.553Z,45.62
2022-08-08T10:46:31.049Z,46.72
2022-08-08T10:49:00.004Z,46.78
2022-08-08T10:51:31.429Z,47.41
2022-08-08T10:54:25.090Z,46.46
2022-08-08T10:57:03.969Z,44.93
2022-08-08T10:59:40.068Z,42.96
2022-08-08T11:02:10.174Z,41.96
2022-08-08T11:04:53.616Z,40.61
2022-08-08T11:08:31.361Z,39.17
2022-08-08T11:10:19.806Z,40.77
2022-08-08T11:13:27.713Z,41.05
2022-08-08T11:15:58.762Z,39.46
2022-08-08T11:18:30.693Z,39.11
2022-08-08T11:21:08.924Z,39.18
2022-08-08T11:23:41.782Z,37.91
2022-08-08T11:26:19.201Z,40.05
2022-08-08T11:28:50.283Z,40.46
2022-08-08T11:31:21.073Z,36.49
2022-08-08T11:34:03.112Z,36.49
2022-08-08T11:36:36.285Z,38.61
2022-08-08T11:39:05.448Z,37.07
2022-08-08T11:41:39.899Z,37.14
2022-08-08T11:44:11.757Z,34.93
2022-08-08T11:46:40.909Z,35.57
2022-08-08T11:49:14.101Z,34.19
2022-08-08T11:51:50.542Z,36.09
2022-08-08T11:54:33.458Z,36.19
2022-08-08T11:57:27.565Z,36.86
2022-08-08T12:00:02.209Z,35.68
2022-08-08T12:02:41.928Z,34.86
2022-08-08T12:05:13.892Z,34.86
2022-08-08T12:07:59.995Z,34.27
2022-08-08T12:10:30.242Z,35.88
2022-08-08T12:13:17.517Z,36.96
2022-08-08T12:15:48.294Z,35.12
2022-08-08T12:18:24.961Z,36.03
2022-08-08T12:20:55.188Z,35.94
2022-08-08T12:23:43.346Z,34.96
2022-08-08T12:26:28.122Z,34.92
2022-08-08T12:29:40.622Z,35.91
2022-08-08T12:32:17.266Z,37.88
2022-08-08T12:34:52.927Z,36.94
2022-08-08T12:37:40.949Z,37.35
2022-08-08T12:40:22.624Z,36.16
2022-08-08T12:42:53.075Z,36.27
2022-08-08T12:45:59.128Z,38.42
2022-08-08T12:48:37.093Z,37.95
2022-08-08T12:51:07.634Z,35.95
2022-08-08T12:53:59.402Z,35.19
2022-08-08T12:56:34.277Z,34.10
2022-08-08T12:59:02.551Z,34.45
2022-08-08T13:01:40.260Z,34.32
2022-08-08T13:04:19.222Z,35.93
2022-08-08T13:07:04.879Z,38.42
2022-08-08T13:09:43.187Z,37.95
2022-08-08T13:12:48.299Z,39.20
2022-08-08T13:15:19.323Z,39.92
2022-08-08T13:18:08.974Z,40.35
2022-08-08T13:20:44.797Z,40.72
2022-08-08T13:23:41.691Z,39.96
2022-08-08T13:26:14.940Z,37.98
2022-08-08T13:28:45.904Z,37.39
2022-08-08T13:31:17.081Z,34.37
2022-08-08T13:33:50.035Z,34.46
2022-08-08T13:36:25.882Z,36.14
2022-08-08T13:38:54.181Z,37.06
2022-08-08T13:41:23.092Z,38.50
2022-08-08T13:43:51.263Z,39.65
2022-08-08T13:46:26.616Z,39.78
2022-08-08T13:50:33.365Z,40.47
2022-08-08T13:52:35.854Z,40.91
2022-08-08T13:55:07.146Z,41.62
2022-08-08T13:58:06.620Z,41.34
2022-08-08T14:00:24.540Z,40.41
2022-08-08T14:02:59.981Z,39.24
2022-08-08T14:05:34.281Z,38.57
2022-08-08T14:08:16.320Z,38.73
2022-08-08T14:10:45.363Z,39.98
2022-08-08T14:13:30.849Z,40.78
2022-08-08T14:16:16.056Z,40.58
2022-08-08T14:19:11.104Z,41.04
2022-08-08T14:21:52.035Z,42.25
2022-08-08T14:24:34.891Z,43.06
2022-08-08T14:27:07.391Z,44.12
2022-08-08T14:29:39.514Z,43.87
2022-08-08T14:32:11.636Z,43.60
2022-08-08T14:34:45.344Z,43.65
2022-08-08T14:37:18.583Z,43.47
2022-08-08T14:39:53.738Z,44.35
2022-08-08T14:42:54.794Z,43.95
2022-08-08T14:45:46.941Z,43.82
2022-08-08T14:48:27.290Z,43.35
2022-08-08T14:51:07.373Z,43.05
2022-08-08T14:53:56.083Z,43.48
2022-08-08T14:56:25.938Z,44.20
2022-08-08T14:58:54.980Z,44.35
2022-08-08T15:01:37.524Z,45.04
2022-08-08T15:04:09.648Z,44.90
2022-08-08T15:06:39.048Z,44.45
2022-08-08T15:09:09.949Z,44.00
2022-08-08T15:11:43.100Z,44.13
2022-08-08T15:14:15.010Z,44.31
2022-08-08T15:16:44.349Z,44.37
2022-08-08T15:19:14.915Z,43.43
2022-08-08T15:21:44.621Z,42.84
2022-08-08T15:24:14.268Z,43.28
2022-08-08T15:26:52.453Z,43.74
2022-08-08T15:29:22.581Z,45.35
2022-08-08T15:32:03.616Z,45.48
2022-08-08T15:34:40.043Z,46.32
2022-08-08T15:37:07.749Z,45.85
2022-08-08T15:39:38.461Z,46.85
2022-08-08T15:42:10.131Z,46.51
2022-08-08T15:44:38.699Z,46.17
2022-08-08T15:47:07.190Z,44.88
2022-08-08T15:49:48.063Z,44.94
2022-08-08T15:52:18.086Z,45.34
2022-08-08T15:54:51.675Z,46.69
2022-08-08T15:57:20.860Z,46.47
2022-08-08T16:00:06.254Z,45.59
2022-08-08T16:02:37.150Z,45.50
2022-08-08T16:05:13.865Z,45.42
2022-08-08T16:07:51.410Z,44.77
2022-08-08T16:13:20.476Z,45.06
2022-08-08T16:13:33.530Z,45.11
2022-08-08T16:16:09.205Z,44.77
2022-08-08T16:18:43.086Z,44.94
2022-08-08T16:21:20.726Z,45.12
2022-08-08T16:23:55.577Z,43.58
2022-08-08T16:26:34.366Z,43.32
2022-08-08T16:29:08.652Z,43.21
2022-08-08T16:31:37.670Z,42.85
2022-08-08T16:34:05.658Z,43.17
2022-08-08T16:36:34.207Z,43.02
2022-08-08T16:39:09.780Z,42.88
2022-08-08T16:41:53.189Z,41.62
2022-08-08T16:44:27.996Z,42.26
2022-08-08T16:47:42.176Z,42.38
2022-08-08T16:50:15.086Z,41.22
2022-08-08T16:55:05.939Z,40.42
2022-08-08T16:55:53.006Z,40.60
2022-08-08T16:58:25.804Z,40.41
2022-08-08T17:00:58.934Z,41.08
2022-08-08T17:03:58.646Z,41.25
2022-08-08T17:06:35.453Z,41.58
2022-08-08T17:09:02.368Z,42.74
2022-08-08T17:11:38.873Z,43.23
2022-08-08T17:14:18.056Z,43.07
2022-08-08T17:16:57.471Z,43.54
2022-08-08T17:19:30.400Z,43.98
2022-08-08T17:22:05.822Z,44.97
2022-08-08T17:24:36.674Z,46.00
2022-08-08T17:27:07.499Z,46.88
2022-08-08T17:29:36.457Z,47.28
2022-08-08T17:32:11.111Z,47.12
2022-08-08T17:35:52.201Z,47.42
2022-08-08T17:37:32.557Z,48.35
2022-08-08T17:40:12.888Z,48.35
2022-08-08T17:42:47.227Z,49.23
2022-08-08T17:45:23.678Z,49.40
2022-08-08T17:47:54.562Z,50.30
2022-08-08T17:50:22.803Z,51.61
2022-08-08T17:52:50.336Z,52.22
2022-08-08T17:56:05.974Z,53.12
2022-08-08T17:58:05.559Z,54.18
2022-08-08T18:00:33.094Z,54.53
2022-08-08T18:03:08.292Z,54.59
2022-08-08T18:05:48.718Z,55.31
2022-08-08T18:08:25.169Z,55.52
2022-08-08T18:11:15.365Z,55.79
2022-08-08T18:13:45.602Z,55.91
2022-08-08T18:16:20.473Z,55.86
2022-08-08T18:18:52.501Z,56.16
2022-08-08T18:21:35.571Z,56.10
2022-08-08T18:24:19.012Z,55.56
2022-08-08T18:26:53.781Z,55.79
2022-08-08T18:29:33.911Z,55.89
2022-08-08T18:32:07.289Z,55.49
2022-08-08T18:34:39.487Z,55.91
2022-08-08T18:37:10.258Z,55.76
2022-08-08T18:39:57.779Z,56.04
2022-08-08T18:42:28.137Z,56.11
2022-08-08T18:44:57.567Z,55.87
2022-08-08T18:47:31.535Z,56.20
2022-08-08T18:50:02.859Z,56.15
2022-08-08T18:52:33.837Z,56.19
2022-08-08T18:55:10.707Z,56.09
2022-08-08T18:57:43.429Z,55.65
2022-08-08T19:00:20.203Z,55.29
2022-08-08T19:02:55.259Z,55.47
2022-08-08T19:05:31.767Z,55.67
2022-08-08T19:08:02.956Z,55.72
2022-08-08T19:10:31.706Z,55.79
2022-08-08T19:13:00.258Z,56.20
2022-08-08T19:15:33.997Z,56.24
2022-08-08T19:18:33.214Z,56.39
2022-08-08T19:20:49.685Z,56.82
2022-08-08T19:23:17.878Z,56.85
2022-08-08T19:26:19.612Z,57.08
2022-08-08T19:28:43.101Z,57.55
2022-08-08T19:31:13.115Z,58.03
2022-08-08T19:34:04.669Z,58.56
2022-08-08T19:36:34.968Z,58.94
2022-08-08T19:39:02.690Z,59.47
2022-08-08T19:41:33.724Z,59.82
2022-08-08T19:44:03.871Z,60.35
2022-08-08T19:46:33.935Z,60.37
2022-08-08T19:49:05.617Z,60.64
2022-08-08T19:51:34.760Z,61.32
2022-08-08T19:54:09.470Z,61.03
2022-08-08T19:56:39.820Z,61.32
2022-08-08T19:59:10.141Z,61.74
2022-08-08T20:02:02.463Z,61.66
2022-08-08T20:04:29.751Z,61.94
2022-08-08T20:07:03.444Z,62.24
2022-08-08T20:09:36.464Z,62.81
2022-08-08T20:12:14.010Z,63.36
2022-08-08T20:14:51.846Z,63.75
2022-08-08T20:17:26.912Z,63.98
2022-08-08T20:19:55.713Z,64.09
2022-08-08T20:22:31.013Z,64.98
2022-08-08T20:25:00.653Z,65.64
2022-08-08T20:27:33.018Z,65.68
2022-08-08T20:30:56.237Z,65.77
2022-08-08T20:33:18.423Z,66.26
2022-08-08T20:35:58.250Z,66.46
2022-08-08T20:38:32.658Z,66.85
2022-08-08T20:41:16.923Z,67.23
2022-08-08T20:43:49.362Z,67.56
2022-08-08T20:46:20.366Z,67.65
2022-08-08T20:48:48.567Z,67.70
2022-08-08T20:51:17.470Z,68.29
2022-08-08T20:53:58.989Z,68.28
2022-08-08T20:56:35.578Z,68.25
2022-08-08T20:59:08.964Z,68.72
2022-08-08T21:02:05.497Z,69.44
2022-08-08T21:04:27.677Z,69.74
2022-08-08T21:07:00.069Z,69.97
2022-08-08T21:09:31.697Z,70.45
2022-08-08T21:12:16.381Z,70.92
2022-08-08T21:14:48.970Z,71.30
2022-08-08T21:17:16.842Z,71.47
2022-08-08T21:19:47.211Z,71.68
2022-08-08T21:22:15.799Z,71.94
2022-08-08T21:24:52.682Z,72.32
2022-08-08T21:28:06.756Z,72.31
2022-08-08T21:30:18.736Z,72.53
2022-08-08T21:32:52.037Z,72.96
2022-08-08T21:36:14.939Z,73.11
2022-08-08T21:38:16.120Z,73.36
2022-08-08T21:40:55.691Z,73.41
2022-08-08T21:43:33.651Z,73.25
2022-08-08T21:48:05.276Z,73.11
2022-08-08T21:48:54.641Z,73.37
2022-08-08T21:54:17.367Z,73.40
2022-08-08T21:54:31.914Z,73.26
2022-08-08T21:57:01.778Z,73.24
2022-08-08T22:00:01.313Z,73.25
2022-08-08T22:02:19.374Z,73.26
2022-08-08T22:04:52.342Z,73.27
2022-08-08T22:07:20.014Z,73.57
2022-08-08T22:09:54.943Z,73.54
2022-08-08T22:12:22.490Z,73.56
2022-08-08T22:14:53.049Z,73.98
2022-08-08T22:17:20.775Z,74.19
2022-08-08T22:20:12.153Z,74.24
2022-08-08T22:22:38.539Z,74.45
2022-08-08T22:25:17.743Z,74.35
2022-08-08T22:28:02.567Z,74.62
2022-08-08T22:30:32.299Z,74.78
2022-08-08T22:33:01.739Z,74.87
2022-08-08T22:36:04.270Z,75.01
2022-08-08T22:38:17.482Z,75.24
2022-08-08T22:40:48.243Z,75.46
2022-08-08T22:43:17.559Z,75.35
2022-08-08T22:45:46.722Z,75.11
2022-08-08T22:48:21.519Z,75.19
2022-08-08T22:50:49.443Z,75.41
2022-08-08T22:54:28.137Z,75.30
2022-08-08T22:56:05.017Z,75.33
2022-08-08T22:58:35.087Z,75.55
2022-08-08T23:02:00.554Z,75.57
2022-08-08T23:03:59.805Z,75.54
2022-08-08T23:06:27.602Z,75.60
2022-08-08T23:08:58.991Z,75.87
2022-08-08T23:11:31.115Z,75.94
2022-08-08T23:14:18.761Z,75.79
2022-08-08T23:16:54.475Z,75.93
2022-08-08T23:19:25.775Z,75.93
2022-08-08T23:21:53.287Z,76.11
2022-08-08T23:24:23.028Z,75.92
2022-08-08T23:26:53.489Z,76.11
2022-08-08T23:29:23.759Z,76.49
2022-08-08T23:31:51.264Z,76.48
2022-08-08T23:34:19.564Z,76.67
2022-08-08T23:36:48.653Z,76.47
2022-08-08T23:39:16.676Z,76.58
2022-08-08T23:41:46.927Z,76.48
2022-08-08T23:44:18.810Z,76.54
2022-08-08T23:49:07.542Z,76.94
2022-08-08T23:49:34.752Z,76.98
2022-08-08T23:52:06.214Z,76.98
2022-08-08T23:54:42.318Z,77.09
2022-08-08T23:57:27.677Z,77.14
